sensor_id;sensor_type;location;lat;lon;timestamp;P1;durP1;ratioP1;P2;durP2;ratioP2
8610;SDS011;4343;53.648;10.098;2023-07-29T00:01:19;2.67;;;2.47;;
8610;SDS011;4343;53.648;10.098;2023-07-29T00:03:45;2.63;;;2.53;;
8610;SDS011;4343;53.648;10.098;2023-07-29T00:06:11;2.50;;;2.40;;
8610;SDS011;4343;53.648;10.098;2023-07-29T00:08:36;2.80;;;2.70;;
8610;SDS011;4343;53.648;10.098;2023-07-29T00:11:02;2.22;;;2.13;;
8610;SDS011;4343;53.648;10.098;2023-07-29T00:13:27;2.75;;;2.58;;
8610;SDS011;4343;53.648;10.098;2023-07-29T00:15:54;3.00;;;2.90;;
8610;SDS011;4343;53.648;10.098;2023-07-29T00:18:20;2.90;;;2.80;;
8610;SDS011;4343;53.648;10.098;2023-07-29T00:20:46;3.08;;;2.97;;
8610;SDS011;4343;53.648;10.098;2023-07-29T00:23:12;3.08;;;2.97;;
8610;SDS011;4343;53.648;10.098;2023-07-29T00:25:37;3.20;;;3.10;;
8610;SDS011;4343;53.648;10.098;2023-07-29T00:28:03;3.25;;;3.15;;
8610;SDS011;4343;53.648;10.098;2023-07-29T00:30:29;3.65;;;3.38;;
8610;SDS011;4343;53.648;10.098;2023-07-29T00:32:54;3.55;;;3.40;;
8610;SDS011;4343;53.648;10.098;2023-07-29T00:35:20;3.55;;;3.45;;
8610;SDS011;4343;53.648;10.098;2023-07-29T00:37:45;3.65;;;3.55;;
8610;SDS011;4343;53.648;10.098;2023-07-29T00:40:15;3.90;;;3.70;;
8610;SDS011;4343;53.648;10.098;2023-07-29T00:42:45;3.83;;;3.72;;
8610;SDS011;4343;53.648;10.098;2023-07-29T00:45:11;3.90;;;3.70;;
8610;SDS011;4343;53.648;10.098;2023-07-29T00:47:37;3.80;;;3.60;;
8610;SDS011;4343;53.648;10.098;2023-07-29T00:50:04;5.00;;;4.68;;
8610;SDS011;4343;53.648;10.098;2023-07-29T00:52:34;5.43;;;5.13;;
8610;SDS011;4343;53.648;10.098;2023-07-29T00:54:59;5.80;;;5.40;;
8610;SDS011;4343;53.648;10.098;2023-07-29T00:57:25;5.68;;;5.28;;
8610;SDS011;4343;53.648;10.098;2023-07-29T00:59:53;6.32;;;5.80;;
8610;SDS011;4343;53.648;10.098;2023-07-29T01:02:19;5.78;;;5.38;;
8610;SDS011;4343;53.648;10.098;2023-07-29T01:04:45;6.82;;;6.22;;
8610;SDS011;4343;53.648;10.098;2023-07-29T01:07:14;6.50;;;5.93;;
8610;SDS011;4343;53.648;10.098;2023-07-29T01:13:01;6.70;;;6.20;;
8610;SDS011;4343;53.648;10.098;2023-07-29T01:15:40;7.25;;;6.38;;
8610;SDS011;4343;53.648;10.098;2023-07-29T01:18:23;6.13;;;5.70;;
8610;SDS011;4343;53.648;10.098;2023-07-29T01:21:04;6.50;;;6.00;;
8610;SDS011;4343;53.648;10.098;2023-07-29T01:23:33;6.07;;;5.60;;
8610;SDS011;4343;53.648;10.098;2023-07-29T01:25:59;6.05;;;5.50;;
8610;SDS011;4343;53.648;10.098;2023-07-29T01:28:25;5.72;;;5.32;;
8610;SDS011;4343;53.648;10.098;2023-07-29T01:30:55;6.45;;;5.85;;
8610;SDS011;4343;53.648;10.098;2023-07-29T01:33:26;6.28;;;5.78;;
8610;SDS011;4343;53.648;10.098;2023-07-29T01:35:58;6.43;;;5.93;;
8610;SDS011;4343;53.648;10.098;2023-07-29T01:38:29;5.68;;;5.22;;
8610;SDS011;4343;53.648;10.098;2023-07-29T01:40:58;5.38;;;4.97;;
8610;SDS011;4343;53.648;10.098;2023-07-29T01:43:27;6.40;;;5.90;;
8610;SDS011;4343;53.648;10.098;2023-07-29T01:45:56;5.28;;;4.93;;
8610;SDS011;4343;53.648;10.098;2023-07-29T01:48:22;5.50;;;5.13;;
8610;SDS011;4343;53.648;10.098;2023-07-29T01:50:47;5.80;;;5.28;;
8610;SDS011;4343;53.648;10.098;2023-07-29T01:53:13;5.50;;;5.15;;
8610;SDS011;4343;53.648;10.098;2023-07-29T01:55:38;5.93;;;5.43;;
8610;SDS011;4343;53.648;10.098;2023-07-29T01:58:04;5.47;;;4.97;;
8610;SDS011;4343;53.648;10.098;2023-07-29T02:00:30;5.40;;;5.10;;
8610;SDS011;4343;53.648;10.098;2023-07-29T02:02:55;5.45;;;5.07;;
8610;SDS011;4343;53.648;10.098;2023-07-29T02:05:21;5.18;;;4.85;;
8610;SDS011;4343;53.648;10.098;2023-07-29T02:07:46;5.40;;;5.10;;
8610;SDS011;4343;53.648;10.098;2023-07-29T02:10:12;5.57;;;5.15;;
8610;SDS011;4343;53.648;10.098;2023-07-29T02:12:37;6.20;;;5.80;;
8610;SDS011;4343;53.648;10.098;2023-07-29T02:15:03;5.75;;;5.25;;
8610;SDS011;4343;53.648;10.098;2023-07-29T02:17:30;5.70;;;5.20;;
8610;SDS011;4343;53.648;10.098;2023-07-29T02:19:56;5.80;;;5.40;;
8610;SDS011;4343;53.648;10.098;2023-07-29T02:22:21;5.93;;;5.43;;
8610;SDS011;4343;53.648;10.098;2023-07-29T02:24:47;5.60;;;5.20;;
8610;SDS011;4343;53.648;10.098;2023-07-29T02:27:13;5.63;;;5.22;;
8610;SDS011;4343;53.648;10.098;2023-07-29T02:29:38;5.63;;;5.13;;
8610;SDS011;4343;53.648;10.098;2023-07-29T02:32:04;5.60;;;5.22;;
8610;SDS011;4343;53.648;10.098;2023-07-29T02:34:30;5.55;;;5.25;;
8610;SDS011;4343;53.648;10.098;2023-07-29T02:36:55;5.78;;;5.40;;
8610;SDS011;4343;53.648;10.098;2023-07-29T02:39:21;4.88;;;4.57;;
8610;SDS011;4343;53.648;10.098;2023-07-29T02:41:46;5.32;;;4.75;;
8610;SDS011;4343;53.648;10.098;2023-07-29T02:44:12;5.70;;;5.38;;
8610;SDS011;4343;53.648;10.098;2023-07-29T02:46:38;5.72;;;5.43;;
8610;SDS011;4343;53.648;10.098;2023-07-29T02:49:03;5.32;;;4.93;;
8610;SDS011;4343;53.648;10.098;2023-07-29T02:51:29;5.35;;;5.13;;
8610;SDS011;4343;53.648;10.098;2023-07-29T02:53:55;5.68;;;5.18;;
8610;SDS011;4343;53.648;10.098;2023-07-29T02:56:21;5.88;;;5.55;;
8610;SDS011;4343;53.648;10.098;2023-07-29T02:58:46;5.80;;;5.43;;
8610;SDS011;4343;53.648;10.098;2023-07-29T03:01:12;5.35;;;5.05;;
8610;SDS011;4343;53.648;10.098;2023-07-29T03:03:37;5.00;;;4.80;;
8610;SDS011;4343;53.648;10.098;2023-07-29T03:06:07;5.47;;;5.07;;
8610;SDS011;4343;53.648;10.098;2023-07-29T03:08:34;5.47;;;5.18;;
8610;SDS011;4343;53.648;10.098;2023-07-29T03:11:10;5.35;;;4.97;;
8610;SDS011;4343;53.648;10.098;2023-07-29T03:13:40;4.93;;;4.50;;
8610;SDS011;4343;53.648;10.098;2023-07-29T03:16:12;5.05;;;4.75;;
8610;SDS011;4343;53.648;10.098;2023-07-29T03:18:40;5.65;;;5.30;;
8610;SDS011;4343;53.648;10.098;2023-07-29T03:21:06;4.93;;;4.72;;
8610;SDS011;4343;53.648;10.098;2023-07-29T03:23:32;5.50;;;5.20;;
8610;SDS011;4343;53.648;10.098;2023-07-29T03:25:58;5.80;;;5.50;;
8610;SDS011;4343;53.648;10.098;2023-07-29T03:28:25;5.60;;;5.25;;
8610;SDS011;4343;53.648;10.098;2023-07-29T03:30:52;5.80;;;5.50;;
8610;SDS011;4343;53.648;10.098;2023-07-29T03:33:18;5.30;;;5.00;;
8610;SDS011;4343;53.648;10.098;2023-07-29T03:35:44;6.63;;;6.13;;
8610;SDS011;4343;53.648;10.098;2023-07-29T03:38:13;5.88;;;5.47;;
8610;SDS011;4343;53.648;10.098;2023-07-29T03:40:39;6.55;;;6.03;;
8610;SDS011;4343;53.648;10.098;2023-07-29T03:43:05;5.97;;;5.68;;
8610;SDS011;4343;53.648;10.098;2023-07-29T03:45:31;6.60;;;6.20;;
8610;SDS011;4343;53.648;10.098;2023-07-29T03:47:57;6.32;;;5.93;;
8610;SDS011;4343;53.648;10.098;2023-07-29T03:50:22;6.50;;;6.10;;
8610;SDS011;4343;53.648;10.098;2023-07-29T03:52:49;6.13;;;5.82;;
8610;SDS011;4343;53.648;10.098;2023-07-29T03:55:15;6.85;;;6.35;;
8610;SDS011;4343;53.648;10.098;2023-07-29T03:57:41;6.90;;;6.50;;
8610;SDS011;4343;53.648;10.098;2023-07-29T04:00:06;7.75;;;7.15;;
8610;SDS011;4343;53.648;10.098;2023-07-29T04:02:32;6.97;;;6.57;;
8610;SDS011;4343;53.648;10.098;2023-07-29T04:04:57;7.28;;;6.72;;
8610;SDS011;4343;53.648;10.098;2023-07-29T04:07:23;7.65;;;7.15;;
8610;SDS011;4343;53.648;10.098;2023-07-29T04:09:49;8.43;;;7.93;;
8610;SDS011;4343;53.648;10.098;2023-07-29T04:12:15;8.90;;;8.30;;
8610;SDS011;4343;53.648;10.098;2023-07-29T04:14:40;8.85;;;8.23;;
8610;SDS011;4343;53.648;10.098;2023-07-29T04:17:06;9.77;;;9.13;;
8610;SDS011;4343;53.648;10.098;2023-07-29T04:19:32;10.00;;;9.30;;
8610;SDS011;4343;53.648;10.098;2023-07-29T04:21:57;10.30;;;9.60;;
8610;SDS011;4343;53.648;10.098;2023-07-29T04:24:23;11.75;;;10.75;;
8610;SDS011;4343;53.648;10.098;2023-07-29T04:26:49;11.88;;;11.02;;
8610;SDS011;4343;53.648;10.098;2023-07-29T04:29:14;12.43;;;11.43;;
8610;SDS011;4343;53.648;10.098;2023-07-29T04:31:40;14.25;;;13.05;;
8610;SDS011;4343;53.648;10.098;2023-07-29T04:34:05;13.60;;;12.55;;
8610;SDS011;4343;53.648;10.098;2023-07-29T04:36:31;14.73;;;13.52;;
8610;SDS011;4343;53.648;10.098;2023-07-29T04:38:58;14.35;;;13.15;;
8610;SDS011;4343;53.648;10.098;2023-07-29T04:41:23;15.27;;;14.07;;
8610;SDS011;4343;53.648;10.098;2023-07-29T04:43:49;15.93;;;14.55;;
8610;SDS011;4343;53.648;10.098;2023-07-29T04:46:15;15.00;;;13.88;;
8610;SDS011;4343;53.648;10.098;2023-07-29T04:48:40;14.77;;;13.70;;
8610;SDS011;4343;53.648;10.098;2023-07-29T04:51:06;15.10;;;13.90;;
8610;SDS011;4343;53.648;10.098;2023-07-29T04:53:32;15.60;;;14.30;;
8610;SDS011;4343;53.648;10.098;2023-07-29T04:55:59;16.08;;;14.65;;
8610;SDS011;4343;53.648;10.098;2023-07-29T04:58:25;16.40;;;15.10;;
8610;SDS011;4343;53.648;10.098;2023-07-29T05:00:53;16.45;;;15.10;;
8610;SDS011;4343;53.648;10.098;2023-07-29T05:03:19;15.70;;;14.45;;
8610;SDS011;4343;53.648;10.098;2023-07-29T05:05:44;17.33;;;16.02;;
8610;SDS011;4343;53.648;10.098;2023-07-29T05:08:10;16.48;;;15.18;;
8610;SDS011;4343;53.648;10.098;2023-07-29T05:10:36;16.48;;;15.15;;
8610;SDS011;4343;53.648;10.098;2023-07-29T05:13:01;17.77;;;16.23;;
8610;SDS011;4343;53.648;10.098;2023-07-29T05:15:27;15.98;;;14.77;;
8610;SDS011;4343;53.648;10.098;2023-07-29T05:17:52;18.70;;;17.08;;
8610;SDS011;4343;53.648;10.098;2023-07-29T05:20:18;17.17;;;15.70;;
8610;SDS011;4343;53.648;10.098;2023-07-29T05:22:43;16.92;;;15.52;;
8610;SDS011;4343;53.648;10.098;2023-07-29T05:25:09;18.13;;;16.55;;
8610;SDS011;4343;53.648;10.098;2023-07-29T05:27:35;17.38;;;15.93;;
8610;SDS011;4343;53.648;10.098;2023-07-29T05:30:00;18.27;;;16.73;;
8610;SDS011;4343;53.648;10.098;2023-07-29T05:32:26;17.17;;;15.68;;
8610;SDS011;4343;53.648;10.098;2023-07-29T05:34:51;18.25;;;16.65;;
8610;SDS011;4343;53.648;10.098;2023-07-29T05:37:17;18.48;;;16.77;;
8610;SDS011;4343;53.648;10.098;2023-07-29T05:39:42;19.27;;;17.48;;
8610;SDS011;4343;53.648;10.098;2023-07-29T05:42:08;17.67;;;16.00;;
8610;SDS011;4343;53.648;10.098;2023-07-29T05:44:33;18.45;;;16.92;;
8610;SDS011;4343;53.648;10.098;2023-07-29T05:46:59;17.42;;;15.93;;
8610;SDS011;4343;53.648;10.098;2023-07-29T05:49:24;17.98;;;16.38;;
8610;SDS011;4343;53.648;10.098;2023-07-29T05:51:50;16.75;;;15.25;;
8610;SDS011;4343;53.648;10.098;2023-07-29T05:54:18;17.33;;;15.82;;
8610;SDS011;4343;53.648;10.098;2023-07-29T05:56:44;17.75;;;16.00;;
8610;SDS011;4343;53.648;10.098;2023-07-29T05:59:09;15.93;;;14.60;;
8610;SDS011;4343;53.648;10.098;2023-07-29T06:01:35;16.50;;;14.95;;
8610;SDS011;4343;53.648;10.098;2023-07-29T06:04:01;17.33;;;15.70;;
8610;SDS011;4343;53.648;10.098;2023-07-29T06:06:26;19.27;;;17.45;;
8610;SDS011;4343;53.648;10.098;2023-07-29T06:08:52;17.10;;;15.60;;
8610;SDS011;4343;53.648;10.098;2023-07-29T06:11:18;17.65;;;16.10;;
8610;SDS011;4343;53.648;10.098;2023-07-29T06:13:43;16.95;;;15.55;;
8610;SDS011;4343;53.648;10.098;2023-07-29T06:16:09;16.85;;;15.27;;
8610;SDS011;4343;53.648;10.098;2023-07-29T06:18:34;17.75;;;16.35;;
8610;SDS011;4343;53.648;10.098;2023-07-29T06:21:00;16.25;;;14.93;;
8610;SDS011;4343;53.648;10.098;2023-07-29T06:23:25;15.88;;;14.57;;
8610;SDS011;4343;53.648;10.098;2023-07-29T06:25:51;15.82;;;14.43;;
8610;SDS011;4343;53.648;10.098;2023-07-29T06:28:16;16.10;;;14.90;;
8610;SDS011;4343;53.648;10.098;2023-07-29T06:30:42;16.10;;;14.70;;
8610;SDS011;4343;53.648;10.098;2023-07-29T06:33:07;16.63;;;15.32;;
8610;SDS011;4343;53.648;10.098;2023-07-29T06:35:33;15.40;;;14.20;;
8610;SDS011;4343;53.648;10.098;2023-07-29T06:37:59;15.57;;;14.20;;
8610;SDS011;4343;53.648;10.098;2023-07-29T06:40:24;15.65;;;14.45;;
8610;SDS011;4343;53.648;10.098;2023-07-29T06:42:50;17.17;;;15.68;;
8610;SDS011;4343;53.648;10.098;2023-07-29T06:45:16;15.30;;;14.10;;
8610;SDS011;4343;53.648;10.098;2023-07-29T06:47:42;15.20;;;14.05;;
8610;SDS011;4343;53.648;10.098;2023-07-29T06:50:07;17.10;;;15.38;;
8610;SDS011;4343;53.648;10.098;2023-07-29T06:52:33;16.90;;;15.48;;
8610;SDS011;4343;53.648;10.098;2023-07-29T06:54:59;19.67;;;18.15;;
8610;SDS011;4343;53.648;10.098;2023-07-29T06:57:24;16.05;;;14.85;;
8610;SDS011;4343;53.648;10.098;2023-07-29T06:59:50;17.45;;;16.13;;
8610;SDS011;4343;53.648;10.098;2023-07-29T07:02:15;17.77;;;16.38;;
8610;SDS011;4343;53.648;10.098;2023-07-29T07:04:41;17.27;;;15.82;;
8610;SDS011;4343;53.648;10.098;2023-07-29T07:07:07;17.55;;;15.90;;
8610;SDS011;4343;53.648;10.098;2023-07-29T07:09:32;17.20;;;15.80;;
8610;SDS011;4343;53.648;10.098;2023-07-29T07:11:58;17.10;;;15.80;;
8610;SDS011;4343;53.648;10.098;2023-07-29T07:14:23;17.42;;;16.02;;
8610;SDS011;4343;53.648;10.098;2023-07-29T07:16:49;18.10;;;16.70;;
8610;SDS011;4343;53.648;10.098;2023-07-29T07:19:14;17.25;;;15.85;;
8610;SDS011;4343;53.648;10.098;2023-07-29T07:21:40;17.92;;;16.45;;
8610;SDS011;4343;53.648;10.098;2023-07-29T07:24:05;20.00;;;18.40;;
8610;SDS011;4343;53.648;10.098;2023-07-29T07:26:31;22.30;;;20.48;;
8610;SDS011;4343;53.648;10.098;2023-07-29T07:28:57;21.58;;;19.67;;
8610;SDS011;4343;53.648;10.098;2023-07-29T07:31:22;21.75;;;19.63;;
8610;SDS011;4343;53.648;10.098;2023-07-29T07:33:48;19.70;;;18.10;;
8610;SDS011;4343;53.648;10.098;2023-07-29T07:36:13;19.15;;;17.48;;
8610;SDS011;4343;53.648;10.098;2023-07-29T07:38:40;20.92;;;19.13;;
8610;SDS011;4343;53.648;10.098;2023-07-29T07:41:06;20.15;;;18.52;;
8610;SDS011;4343;53.648;10.098;2023-07-29T07:43:32;19.52;;;17.83;;
8610;SDS011;4343;53.648;10.098;2023-07-29T07:45:58;20.25;;;18.50;;
8610;SDS011;4343;53.648;10.098;2023-07-29T07:48:24;19.92;;;18.10;;
8610;SDS011;4343;53.648;10.098;2023-07-29T07:50:50;19.35;;;17.77;;
8610;SDS011;4343;53.648;10.098;2023-07-29T07:53:16;18.55;;;16.77;;
8610;SDS011;4343;53.648;10.098;2023-07-29T07:55:41;18.50;;;16.90;;
8610;SDS011;4343;53.648;10.098;2023-07-29T07:58:07;18.38;;;16.75;;
8610;SDS011;4343;53.648;10.098;2023-07-29T08:00:32;17.58;;;16.23;;
8610;SDS011;4343;53.648;10.098;2023-07-29T08:02:58;18.23;;;16.73;;
8610;SDS011;4343;53.648;10.098;2023-07-29T08:05:23;19.05;;;17.50;;
8610;SDS011;4343;53.648;10.098;2023-07-29T08:07:49;18.95;;;17.20;;
8610;SDS011;4343;53.648;10.098;2023-07-29T08:10:14;18.02;;;16.60;;
8610;SDS011;4343;53.648;10.098;2023-07-29T08:12:40;19.05;;;17.20;;
8610;SDS011;4343;53.648;10.098;2023-07-29T08:15:06;18.25;;;16.77;;
8610;SDS011;4343;53.648;10.098;2023-07-29T08:17:32;18.75;;;16.98;;
8610;SDS011;4343;53.648;10.098;2023-07-29T08:19:57;19.42;;;17.70;;
8610;SDS011;4343;53.648;10.098;2023-07-29T08:22:23;19.73;;;18.02;;
8610;SDS011;4343;53.648;10.098;2023-07-29T08:24:48;18.20;;;16.73;;
8610;SDS011;4343;53.648;10.098;2023-07-29T08:27:14;19.25;;;17.63;;
8610;SDS011;4343;53.648;10.098;2023-07-29T08:29:39;19.58;;;17.88;;
8610;SDS011;4343;53.648;10.098;2023-07-29T08:32:05;20.35;;;18.40;;
8610;SDS011;4343;53.648;10.098;2023-07-29T08:34:30;18.73;;;17.08;;
8610;SDS011;4343;53.648;10.098;2023-07-29T08:36:56;17.65;;;16.15;;
8610;SDS011;4343;53.648;10.098;2023-07-29T08:39:22;17.77;;;16.30;;
8610;SDS011;4343;53.648;10.098;2023-07-29T08:44:24;17.90;;;16.30;;
8610;SDS011;4343;53.648;10.098;2023-07-29T08:46:51;17.75;;;16.35;;
8610;SDS011;4343;53.648;10.098;2023-07-29T08:49:19;18.13;;;16.63;;
8610;SDS011;4343;53.648;10.098;2023-07-29T08:51:46;17.33;;;15.77;;
8610;SDS011;4343;53.648;10.098;2023-07-29T08:54:13;17.83;;;16.33;;
8610;SDS011;4343;53.648;10.098;2023-07-29T08:56:40;15.80;;;14.50;;
8610;SDS011;4343;53.648;10.098;2023-07-29T08:59:07;16.05;;;14.65;;
8610;SDS011;4343;53.648;10.098;2023-07-29T09:01:33;16.45;;;15.05;;
8610;SDS011;4343;53.648;10.098;2023-07-29T09:03:59;14.98;;;13.77;;
8610;SDS011;4343;53.648;10.098;2023-07-29T09:06:24;16.42;;;15.13;;
8610;SDS011;4343;53.648;10.098;2023-07-29T09:08:52;16.92;;;15.43;;
8610;SDS011;4343;53.648;10.098;2023-07-29T09:11:19;14.77;;;13.57;;
8610;SDS011;4343;53.648;10.098;2023-07-29T09:13:45;14.18;;;13.07;;
8610;SDS011;4343;53.648;10.098;2023-07-29T09:16:11;15.50;;;14.30;;
8610;SDS011;4343;53.648;10.098;2023-07-29T09:18:37;15.02;;;13.73;;
8610;SDS011;4343;53.648;10.098;2023-07-29T09:21:03;15.40;;;14.23;;
8610;SDS011;4343;53.648;10.098;2023-07-29T09:23:32;14.82;;;13.52;;
8610;SDS011;4343;53.648;10.098;2023-07-29T09:26:05;15.70;;;14.40;;
8610;SDS011;4343;53.648;10.098;2023-07-29T09:28:34;13.52;;;12.52;;
8610;SDS011;4343;53.648;10.098;2023-07-29T09:31:01;13.98;;;12.88;;
8610;SDS011;4343;53.648;10.098;2023-07-29T09:33:27;14.02;;;12.90;;
8610;SDS011;4343;53.648;10.098;2023-07-29T09:35:53;14.40;;;13.23;;
8610;SDS011;4343;53.648;10.098;2023-07-29T09:38:25;14.30;;;13.15;;
8610;SDS011;4343;53.648;10.098;2023-07-29T09:40:54;12.32;;;11.43;;
8610;SDS011;4343;53.648;10.098;2023-07-29T09:43:20;12.80;;;11.80;;
8610;SDS011;4343;53.648;10.098;2023-07-29T09:45:51;11.32;;;10.43;;
8610;SDS011;4343;53.648;10.098;2023-07-29T09:48:17;11.57;;;10.77;;
8610;SDS011;4343;53.648;10.098;2023-07-29T09:50:47;13.52;;;12.35;;
8610;SDS011;4343;53.648;10.098;2023-07-29T09:53:13;10.68;;;9.93;;
8610;SDS011;4343;53.648;10.098;2023-07-29T09:55:39;11.38;;;10.48;;
8610;SDS011;4343;53.648;10.098;2023-07-29T09:58:04;11.40;;;10.50;;
8610;SDS011;4343;53.648;10.098;2023-07-29T10:00:33;10.30;;;9.55;;
8610;SDS011;4343;53.648;10.098;2023-07-29T11:27:11;4.82;;;4.53;;
8610;SDS011;4343;53.648;10.098;2023-07-29T11:29:37;5.00;;;4.50;;
8610;SDS011;4343;53.648;10.098;2023-07-29T11:32:02;4.93;;;4.63;;
8610;SDS011;4343;53.648;10.098;2023-07-29T11:34:32;4.20;;;4.00;;
8610;SDS011;4343;53.648;10.098;2023-07-29T11:36:57;4.43;;;4.22;;
8610;SDS011;4343;53.648;10.098;2023-07-29T11:39:23;4.67;;;4.33;;
8610;SDS011;4343;53.648;10.098;2023-07-29T11:41:48;4.10;;;3.90;;
8610;SDS011;4343;53.648;10.098;2023-07-29T11:44:17;3.73;;;3.53;;
8610;SDS011;4343;53.648;10.098;2023-07-29T11:46:43;3.25;;;3.10;;
8610;SDS011;4343;53.648;10.098;2023-07-29T11:49:08;3.10;;;3.00;;
8610;SDS011;4343;53.648;10.098;2023-07-29T11:51:34;3.10;;;2.90;;
8610;SDS011;4343;53.648;10.098;2023-07-29T11:54:01;3.00;;;2.90;;
8610;SDS011;4343;53.648;10.098;2023-07-29T11:56:27;3.45;;;3.28;;
8610;SDS011;4343;53.648;10.098;2023-07-29T11:58:53;3.53;;;3.33;;
8610;SDS011;4343;53.648;10.098;2023-07-29T12:01:20;3.38;;;3.10;;
8610;SDS011;4343;53.648;10.098;2023-07-29T12:03:47;3.33;;;3.22;;
8610;SDS011;4343;53.648;10.098;2023-07-29T12:06:13;3.30;;;3.20;;
8610;SDS011;4343;53.648;10.098;2023-07-29T12:08:39;3.00;;;2.90;;
8610;SDS011;4343;53.648;10.098;2023-07-29T12:11:05;2.93;;;2.83;;
8610;SDS011;4343;53.648;10.098;2023-07-29T12:13:31;3.13;;;2.92;;
8610;SDS011;4343;53.648;10.098;2023-07-29T12:16:03;3.00;;;2.90;;
8610;SDS011;4343;53.648;10.098;2023-07-29T12:18:32;3.28;;;3.17;;
8610;SDS011;4343;53.648;10.098;2023-07-29T12:20:58;2.95;;;2.85;;
8610;SDS011;4343;53.648;10.098;2023-07-29T12:23:24;3.23;;;3.00;;
8610;SDS011;4343;53.648;10.098;2023-07-29T12:25:57;2.60;;;2.50;;
8610;SDS011;4343;53.648;10.098;2023-07-29T12:28:24;3.05;;;2.42;;
8610;SDS011;4343;53.648;10.098;2023-07-29T12:30:53;2.35;;;2.25;;
8610;SDS011;4343;53.648;10.098;2023-07-29T12:33:35;2.90;;;2.72;;
8610;SDS011;4343;53.648;10.098;2023-07-29T12:36:04;2.78;;;2.67;;
8610;SDS011;4343;53.648;10.098;2023-07-29T12:38:30;2.65;;;2.55;;
8610;SDS011;4343;53.648;10.098;2023-07-29T12:40:55;2.35;;;2.30;;
8610;SDS011;4343;53.648;10.098;2023-07-29T12:43:21;2.47;;;2.47;;
8610;SDS011;4343;53.648;10.098;2023-07-29T12:45:50;2.28;;;2.17;;
8610;SDS011;4343;53.648;10.098;2023-07-29T12:48:16;2.45;;;2.28;;
8610;SDS011;4343;53.648;10.098;2023-07-29T12:50:42;2.60;;;2.50;;
8610;SDS011;4343;53.648;10.098;2023-07-29T12:53:08;2.60;;;2.47;;
8610;SDS011;4343;53.648;10.098;2023-07-29T12:55:37;2.47;;;2.38;;
8610;SDS011;4343;53.648;10.098;2023-07-29T12:58:03;2.40;;;2.30;;
8610;SDS011;4343;53.648;10.098;2023-07-29T13:00:29;2.22;;;2.13;;
8610;SDS011;4343;53.648;10.098;2023-07-29T13:02:54;1.90;;;1.90;;
8610;SDS011;4343;53.648;10.098;2023-07-29T13:05:20;2.10;;;2.10;;
8610;SDS011;4343;53.648;10.098;2023-07-29T13:07:46;4.13;;;2.20;;
8610;SDS011;4343;53.648;10.098;2023-07-29T13:10:12;1.80;;;1.80;;
8610;SDS011;4343;53.648;10.098;2023-07-29T13:12:38;1.73;;;1.65;;
8610;SDS011;4343;53.648;10.098;2023-07-29T13:15:04;1.73;;;1.73;;
8610;SDS011;4343;53.648;10.098;2023-07-29T13:17:31;1.85;;;1.75;;
8610;SDS011;4343;53.648;10.098;2023-07-29T13:19:57;1.95;;;1.85;;
8610;SDS011;4343;53.648;10.098;2023-07-29T13:22:22;1.60;;;1.50;;
8610;SDS011;4343;53.648;10.098;2023-07-29T13:24:48;1.70;;;1.60;;
8610;SDS011;4343;53.648;10.098;2023-07-29T13:27:13;3.50;;;1.70;;
8610;SDS011;4343;53.648;10.098;2023-07-29T13:29:39;1.85;;;1.85;;
8610;SDS011;4343;53.648;10.098;2023-07-29T13:32:05;1.50;;;1.50;;
8610;SDS011;4343;53.648;10.098;2023-07-29T13:34:31;1.75;;;1.70;;
8610;SDS011;4343;53.648;10.098;2023-07-29T13:36:57;1.60;;;1.58;;
8610;SDS011;4343;53.648;10.098;2023-07-29T13:39:22;1.90;;;1.80;;
8610;SDS011;4343;53.648;10.098;2023-07-29T13:41:48;2.22;;;1.60;;
8610;SDS011;4343;53.648;10.098;2023-07-29T13:44:13;1.60;;;1.60;;
8610;SDS011;4343;53.648;10.098;2023-07-29T13:46:39;1.67;;;1.58;;
8610;SDS011;4343;53.648;10.098;2023-07-29T13:49:04;1.70;;;1.60;;
8610;SDS011;4343;53.648;10.098;2023-07-29T13:51:30;2.15;;;1.65;;
8610;SDS011;4343;53.648;10.098;2023-07-29T13:53:55;1.70;;;1.70;;
8610;SDS011;4343;53.648;10.098;2023-07-29T13:56:21;1.42;;;1.42;;
8610;SDS011;4343;53.648;10.098;2023-07-29T13:58:47;1.80;;;1.80;;
8610;SDS011;4343;53.648;10.098;2023-07-29T14:01:13;2.00;;;1.90;;
8610;SDS011;4343;53.648;10.098;2023-07-29T14:03:38;1.65;;;1.65;;
8610;SDS011;4343;53.648;10.098;2023-07-29T14:06:04;2.13;;;1.90;;
8610;SDS011;4343;53.648;10.098;2023-07-29T14:08:29;1.60;;;1.60;;
8610;SDS011;4343;53.648;10.098;2023-07-29T14:10:55;1.65;;;1.65;;
8610;SDS011;4343;53.648;10.098;2023-07-29T14:13:21;1.77;;;1.77;;
8610;SDS011;4343;53.648;10.098;2023-07-29T14:15:46;1.73;;;1.63;;
8610;SDS011;4343;53.648;10.098;2023-07-29T14:18:12;2.00;;;1.90;;
8610;SDS011;4343;53.648;10.098;2023-07-29T14:20:38;2.90;;;2.10;;
8610;SDS011;4343;53.648;10.098;2023-07-29T14:23:04;1.90;;;1.90;;
8610;SDS011;4343;53.648;10.098;2023-07-29T14:25:29;1.80;;;1.70;;
8610;SDS011;4343;53.648;10.098;2023-07-29T14:27:55;1.70;;;1.60;;
8610;SDS011;4343;53.648;10.098;2023-07-29T14:30:20;1.85;;;1.83;;
8610;SDS011;4343;53.648;10.098;2023-07-29T14:32:46;2.00;;;1.90;;
8610;SDS011;4343;53.648;10.098;2023-07-29T14:35:11;1.70;;;1.70;;
8610;SDS011;4343;53.648;10.098;2023-07-29T14:37:38;1.90;;;1.67;;
8610;SDS011;4343;53.648;10.098;2023-07-29T14:40:03;1.90;;;1.80;;
8610;SDS011;4343;53.648;10.098;2023-07-29T14:42:29;1.80;;;1.70;;
8610;SDS011;4343;53.648;10.098;2023-07-29T14:44:55;1.83;;;1.73;;
8610;SDS011;4343;53.648;10.098;2023-07-29T14:47:20;1.67;;;1.67;;
8610;SDS011;4343;53.648;10.098;2023-07-29T14:49:46;1.92;;;1.73;;
8610;SDS011;4343;53.648;10.098;2023-07-29T14:52:12;1.88;;;1.75;;
8610;SDS011;4343;53.648;10.098;2023-07-29T14:54:37;1.95;;;1.60;;
8610;SDS011;4343;53.648;10.098;2023-07-29T14:57:04;1.95;;;1.80;;
8610;SDS011;4343;53.648;10.098;2023-07-29T14:59:30;1.80;;;1.80;;
8610;SDS011;4343;53.648;10.098;2023-07-29T15:01:56;1.65;;;1.65;;
8610;SDS011;4343;53.648;10.098;2023-07-29T15:04:21;1.42;;;1.42;;
8610;SDS011;4343;53.648;10.098;2023-07-29T15:06:47;2.35;;;1.65;;
8610;SDS011;4343;53.648;10.098;2023-07-29T15:09:12;2.00;;;1.90;;
8610;SDS011;4343;53.648;10.098;2023-07-29T15:11:38;2.00;;;1.88;;
8610;SDS011;4343;53.648;10.098;2023-07-29T15:14:03;1.50;;;1.50;;
8610;SDS011;4343;53.648;10.098;2023-07-29T15:16:29;1.67;;;1.60;;
8610;SDS011;4343;53.648;10.098;2023-07-29T15:18:55;1.48;;;1.48;;
8610;SDS011;4343;53.648;10.098;2023-07-29T15:21:20;1.70;;;1.60;;
8610;SDS011;4343;53.648;10.098;2023-07-29T15:23:46;1.80;;;1.70;;
8610;SDS011;4343;53.648;10.098;2023-07-29T15:26:12;1.73;;;1.73;;
8610;SDS011;4343;53.648;10.098;2023-07-29T15:28:37;1.80;;;1.70;;
8610;SDS011;4343;53.648;10.098;2023-07-29T15:31:03;1.77;;;1.70;;
8610;SDS011;4343;53.648;10.098;2023-07-29T15:33:29;1.95;;;1.85;;
8610;SDS011;4343;53.648;10.098;2023-07-29T15:35:54;1.70;;;1.60;;
8610;SDS011;4343;53.648;10.098;2023-07-29T15:38:20;1.50;;;1.50;;
8610;SDS011;4343;53.648;10.098;2023-07-29T15:40:45;1.52;;;1.52;;
8610;SDS011;4343;53.648;10.098;2023-07-29T15:43:13;1.90;;;1.80;;
8610;SDS011;4343;53.648;10.098;2023-07-29T15:45:39;2.10;;;1.90;;
8610;SDS011;4343;53.648;10.098;2023-07-29T15:48:05;2.00;;;1.80;;
8610;SDS011;4343;53.648;10.098;2023-07-29T15:50:30;1.70;;;1.65;;
8610;SDS011;4343;53.648;10.098;2023-07-29T15:52:56;1.98;;;1.98;;
8610;SDS011;4343;53.648;10.098;2023-07-29T15:55:24;1.90;;;1.80;;
8610;SDS011;4343;53.648;10.098;2023-07-29T15:57:50;1.80;;;1.70;;
8610;SDS011;4343;53.648;10.098;2023-07-29T16:00:16;1.83;;;1.73;;
8610;SDS011;4343;53.648;10.098;2023-07-29T16:02:41;1.55;;;1.55;;
8610;SDS011;4343;53.648;10.098;2023-07-29T16:05:07;1.75;;;1.75;;
8610;SDS011;4343;53.648;10.098;2023-07-29T16:07:33;1.77;;;1.77;;
8610;SDS011;4343;53.648;10.098;2023-07-29T16:09:58;1.88;;;1.77;;
8610;SDS011;4343;53.648;10.098;2023-07-29T16:12:24;2.00;;;1.90;;
8610;SDS011;4343;53.648;10.098;2023-07-29T16:14:49;1.85;;;1.75;;